Terminal Aerodrome Forecast
Issued by NWS Duluth, MN

Home | Current Version | Previous Version | Text Only | Print | Product List | Glossary On
Versions: 1 2 3 4 5 6 7 8 9 10 11 12 13 14 15 16
000
FTUS43 KDLH 261300 AAA
TAFINL
TAF AMD
KINL 261350Z 2614/2712 32004KT P6SM OVC011
     FM261500 32007KT P6SM OVC015
     FM270300 31003KT P6SM SCT015=

USA.gov is the U.S. government's official web portal to all federal, state and local government web resources and services.